createdAt,value
2022-11-05T00:03:14.712Z,89.33
2022-11-05T00:06:30.387Z,88.43
2022-11-05T00:09:30.769Z,87.50
2022-11-05T00:12:46.400Z,87.20
2022-11-05T00:16:03.257Z,87.58
2022-11-05T00:19:10.149Z,88.44
2022-11-05T00:22:25.745Z,87.75
2022-11-05T00:25:22.921Z,88.97
2022-11-05T00:28:19.813Z,89.10
2022-11-05T00:31:17.064Z,88.49
2022-11-05T00:34:13.888Z,88.28
2022-11-05T00:37:10.833Z,86.53
2022-11-05T00:40:08.779Z,87.53
2022-11-05T00:43:24.587Z,86.63
2022-11-05T00:46:23.341Z,85.36
2022-11-05T00:49:32.127Z,84.43
2022-11-05T00:52:48.012Z,86.64
2022-11-05T00:55:45.173Z,87.56
2022-11-05T00:58:41.937Z,89.67
2022-11-05T01:01:39.039Z,89.76
2022-11-05T01:04:35.765Z,88.69
2022-11-05T01:07:33.498Z,90.06
2022-11-05T01:10:30.939Z,89.52
2022-11-05T01:13:31.064Z,90.28
2022-11-05T01:16:28.183Z,91.79
2022-11-05T01:19:25.044Z,93.47
2022-11-05T01:22:22.142Z,92.14
2022-11-05T01:25:19.093Z,91.45
2022-11-05T01:28:15.954Z,93.76
2022-11-05T01:31:12.656Z,96.19
2022-11-05T01:34:10.139Z,94.06
2022-11-05T01:37:06.649Z,91.77
2022-11-05T01:40:04.417Z,90.93
2022-11-05T01:43:01.891Z,88.78
2022-11-05T01:45:59.379Z,87.91
2022-11-05T01:49:02.770Z,86.51
2022-11-05T01:52:00.111Z,88.66
2022-11-05T01:54:57.090Z,88.27
2022-11-05T01:57:54.004Z,88.47
2022-11-05T02:00:51.248Z,89.52
2022-11-05T02:03:48.875Z,88.92
2022-11-05T02:06:48.792Z,88.62
2022-11-05T02:09:56.963Z,88.41
2022-11-05T02:12:54.595Z,89.94
2022-11-05T02:16:24.139Z,88.71
2022-11-05T02:19:39.958Z,89.02
2022-11-05T02:22:57.202Z,87.34
2022-11-05T02:26:15.124Z,88.72
2022-11-05T02:29:37.405Z,88.98
2022-11-05T02:32:40.052Z,88.18
2022-11-05T02:35:41.284Z,89.06
2022-11-05T02:38:52.807Z,88.32
2022-11-05T02:41:52.943Z,86.75
2022-11-05T02:45:20.776Z,89.05
2022-11-05T02:48:28.502Z,91.09
2022-11-05T02:51:56.191Z,90.62
2022-11-05T02:55:00.221Z,90.50
2022-11-05T02:57:59.816Z,90.02
2022-11-05T03:00:57.992Z,88.38
2022-11-05T03:04:00.819Z,89.79
2022-11-05T03:07:17.168Z,90.26
2022-11-05T03:10:26.840Z,88.15
2022-11-05T03:13:33.044Z,88.13
2022-11-05T03:16:38.740Z,90.45
2022-11-05T03:19:50.039Z,91.25
2022-11-05T03:22:51.266Z,90.52
2022-11-05T03:25:51.752Z,90.89
2022-11-05T03:28:52.073Z,90.01
2022-11-05T03:31:49.535Z,88.77
2022-11-05T03:34:51.759Z,89.69
2022-11-05T03:37:49.656Z,90.26
2022-11-05T03:40:47.720Z,91.26
2022-11-05T03:43:50.512Z,90.44
2022-11-05T03:46:49.389Z,90.51
2022-11-05T03:50:15.414Z,89.60
2022-11-05T03:53:15.868Z,90.19
2022-11-05T03:56:31.496Z,89.46
2022-11-05T03:59:30.417Z,89.83
2022-11-05T04:02:27.426Z,89.89
2022-11-05T04:05:25.170Z,89.65
2022-11-05T04:08:40.424Z,90.95
2022-11-05T04:11:55.956Z,92.94
2022-11-05T04:14:53.025Z,91.62
2022-11-05T04:17:50.443Z,92.49
2022-11-05T04:21:05.894Z,94.72
2022-11-05T04:24:09.403Z,93.86
2022-11-05T04:27:07.640Z,93.30
2022-11-05T04:30:21.669Z,97.63
2022-11-05T04:33:18.934Z,99.88
2022-11-05T04:36:16.286Z,100.00
2022-11-05T04:39:13.160Z,98.90
2022-11-05T04:42:10.260Z,98.02
2022-11-05T04:45:07.568Z,98.68
2022-11-05T04:48:04.536Z,100.00
2022-11-05T04:51:00.996Z,100.00
2022-11-05T04:53:58.365Z,99.14
2022-11-05T04:56:54.918Z,97.26
2022-11-05T04:59:53.877Z,95.03
2022-11-05T05:02:51.363Z,95.72
2022-11-05T05:05:48.063Z,95.19
2022-11-05T05:08:47.119Z,95.01
2022-11-05T05:11:44.033Z,95.00
2022-11-05T05:14:41.008Z,92.88
2022-11-05T05:17:38.090Z,94.93
2022-11-05T05:20:53.652Z,92.79
2022-11-05T05:23:51.459Z,91.46
2022-11-05T05:26:49.064Z,91.21
2022-11-05T05:29:46.454Z,90.72
2022-11-05T05:32:43.159Z,91.89
2022-11-05T05:35:40.418Z,90.81
2022-11-05T05:38:37.270Z,89.34
2022-11-05T05:41:34.449Z,89.33
2022-11-05T05:44:31.045Z,91.06
2022-11-05T05:47:28.536Z,91.34
2022-11-05T05:50:24.976Z,92.40
2022-11-05T05:53:22.242Z,94.31
2022-11-05T05:56:20.618Z,94.51
2022-11-05T05:59:17.908Z,95.22
2022-11-05T06:02:15.990Z,93.50
2022-11-05T06:05:13.238Z,92.35
2022-11-05T06:08:10.232Z,92.30
2022-11-05T06:11:07.396Z,93.66
2022-11-05T06:14:04.295Z,93.36
2022-11-05T06:17:01.098Z,92.62
2022-11-05T06:19:58.396Z,91.00
2022-11-05T06:22:58.261Z,91.43
2022-11-05T06:25:57.854Z,93.39
2022-11-05T06:28:55.318Z,91.96
2022-11-05T06:31:52.086Z,94.08
2022-11-05T06:34:49.287Z,96.27
2022-11-05T06:37:46.448Z,97.84
2022-11-05T06:40:42.918Z,97.44
2022-11-05T06:43:40.437Z,97.10
2022-11-05T06:46:37.130Z,97.80
2022-11-05T06:49:33.974Z,97.09
2022-11-05T06:52:31.480Z,98.44
2022-11-05T06:55:29.360Z,100.00
2022-11-05T06:58:26.780Z,100.00
2022-11-05T07:01:24.303Z,100.00
2022-11-05T07:04:21.266Z,100.00
2022-11-05T07:07:18.199Z,100.00
2022-11-05T07:10:16.581Z,100.00
2022-11-05T07:13:13.654Z,100.00
2022-11-05T07:16:11.519Z,100.00
2022-11-05T07:19:08.256Z,100.00
2022-11-05T07:22:05.198Z,100.00
2022-11-05T07:25:02.232Z,100.00
2022-11-05T07:27:59.146Z,100.00
2022-11-05T07:30:58.601Z,100.00
2022-11-05T07:33:55.389Z,100.00
2022-11-05T07:36:52.376Z,100.00
2022-11-05T07:39:49.354Z,100.00
2022-11-05T07:42:47.664Z,99.99
2022-11-05T07:45:47.722Z,100.00
2022-11-05T07:48:45.112Z,100.00
2022-11-05T07:51:42.731Z,100.00
2022-11-05T07:54:40.191Z,100.00
2022-11-05T07:57:55.531Z,100.00
2022-11-05T08:00:52.953Z,100.00
2022-11-05T08:03:50.259Z,100.00
2022-11-05T08:06:47.900Z,100.00
2022-11-05T08:09:45.288Z,100.00
2022-11-05T08:12:42.239Z,100.00
2022-11-05T08:15:39.442Z,100.00
2022-11-05T08:18:36.184Z,100.00
2022-11-05T08:21:33.664Z,97.08
2022-11-05T08:24:30.496Z,97.60
2022-11-05T08:27:27.401Z,98.55
2022-11-05T08:30:24.612Z,97.74
2022-11-05T08:33:23.012Z,96.10
2022-11-05T08:36:20.439Z,97.50
2022-11-05T08:39:19.034Z,97.61
2022-11-05T08:42:16.301Z,98.46
2022-11-05T08:45:13.290Z,98.42
2022-11-05T08:48:11.627Z,98.43
2022-11-05T08:51:08.927Z,98.04
2022-11-05T08:54:06.089Z,98.24
2022-11-05T08:57:03.688Z,97.57
2022-11-05T09:00:00.235Z,96.28
2022-11-05T09:03:03.459Z,98.13
2022-11-05T09:06:00.498Z,98.65
2022-11-05T09:08:57.371Z,97.13
2022-11-05T09:15:11.179Z,98.11
2022-11-05T09:18:10.100Z,96.92
2022-11-05T09:21:07.570Z,98.08
2022-11-05T09:24:04.676Z,96.48
2022-11-05T09:27:01.541Z,95.11
2022-11-05T09:29:58.437Z,94.86
2022-11-05T09:32:55.594Z,95.26
2022-11-05T09:35:52.967Z,95.51
2022-11-05T09:38:50.343Z,96.67
2022-11-05T09:41:47.184Z,96.68
2022-11-05T09:44:55.262Z,95.31
2022-11-05T09:47:54.280Z,95.79
2022-11-05T09:50:51.180Z,96.24
2022-11-05T09:53:48.644Z,95.50
2022-11-05T09:56:45.133Z,94.45
2022-11-05T09:59:47.731Z,92.86
2022-11-05T10:02:55.767Z,91.37
2022-11-05T10:05:53.885Z,90.21
2022-11-05T10:09:16.329Z,89.51
2022-11-05T10:12:17.487Z,89.02
2022-11-05T10:15:35.084Z,87.92
2022-11-05T10:18:44.507Z,86.07
2022-11-05T10:24:58.385Z,85.04
2022-11-05T10:27:55.721Z,83.82
2022-11-05T10:30:56.638Z,83.95
2022-11-05T10:34:13.735Z,83.45
2022-11-05T10:37:10.369Z,82.63
2022-11-05T10:40:17.656Z,81.03
2022-11-05T10:43:18.575Z,80.25
2022-11-05T10:46:30.121Z,79.75
2022-11-05T10:49:48.383Z,79.28
2022-11-05T10:52:59.297Z,78.65
2022-11-05T10:55:58.484Z,76.60
2022-11-05T10:58:56.983Z,75.68
2022-11-05T11:01:57.938Z,76.28
2022-11-05T11:04:56.548Z,76.83
2022-11-05T11:08:01.417Z,76.50
2022-11-05T11:11:00.049Z,76.90
2022-11-05T11:13:57.443Z,77.67
2022-11-05T11:16:57.759Z,79.78
2022-11-05T11:20:28.222Z,81.60
2022-11-05T11:23:25.760Z,82.22
2022-11-05T11:26:22.661Z,80.31
2022-11-05T11:29:26.576Z,80.07
2022-11-05T11:32:24.876Z,79.07
2022-11-05T11:35:24.341Z,75.93
2022-11-05T11:38:21.555Z,74.85
2022-11-05T11:41:39.551Z,77.55
2022-11-05T11:44:46.437Z,77.39
2022-11-05T11:47:44.660Z,75.82
2022-11-05T11:50:43.181Z,72.13
2022-11-05T11:53:40.565Z,71.93
2022-11-05T11:56:44.847Z,70.49
2022-11-05T12:00:07.267Z,68.80
2022-11-05T12:03:14.744Z,71.84
2022-11-05T12:06:24.062Z,71.51
2022-11-05T12:09:43.386Z,73.38
2022-11-05T12:13:28.415Z,76.53
2022-11-05T12:17:00.960Z,75.48
2022-11-05T12:20:10.500Z,76.76
2022-11-05T12:23:13.251Z,78.70
2022-11-05T12:26:29.020Z,78.97
2022-11-05T12:29:51.048Z,78.78
2022-11-05T12:32:53.457Z,79.03
2022-11-05T12:36:06.334Z,79.55
2022-11-05T12:39:39.660Z,81.19
2022-11-05T12:42:45.115Z,81.37
2022-11-05T12:45:47.865Z,83.35
2022-11-05T12:48:57.754Z,82.99
2022-11-05T12:52:13.852Z,80.95
2022-11-05T12:55:15.422Z,79.21
2022-11-05T12:58:15.667Z,79.83
2022-11-05T13:01:18.451Z,79.30
2022-11-05T13:04:25.769Z,79.75
2022-11-05T13:07:27.516Z,80.25
2022-11-05T13:10:41.356Z,79.84
2022-11-05T13:14:00.245Z,78.95
2022-11-05T13:17:18.401Z,78.65
2022-11-05T13:20:19.389Z,79.40
2022-11-05T13:23:35.357Z,78.87
2022-11-05T13:26:46.521Z,79.55
2022-11-05T13:29:53.889Z,79.96
2022-11-05T13:33:04.596Z,79.09
2022-11-05T13:36:31.921Z,80.33
2022-11-05T13:39:35.517Z,80.16
2022-11-05T13:43:09.371Z,80.35
2022-11-05T13:46:09.395Z,79.82
2022-11-05T13:49:27.967Z,79.42
2022-11-05T13:52:33.859Z,79.44
2022-11-05T13:55:33.250Z,79.31
2022-11-05T13:58:45.283Z,80.32
2022-11-05T14:01:53.678Z,80.72
2022-11-05T14:04:58.036Z,80.87
2022-11-05T14:08:07.179Z,80.43
2022-11-05T14:11:26.783Z,79.87
2022-11-05T14:14:30.536Z,80.11
2022-11-05T14:17:55.817Z,80.57
2022-11-05T14:21:02.506Z,81.42
2022-11-05T14:24:00.732Z,81.39
2022-11-05T14:27:00.489Z,81.37
2022-11-05T14:29:57.935Z,81.20
2022-11-05T14:32:55.646Z,80.25
2022-11-05T14:35:53.744Z,79.64
2022-11-05T14:38:56.845Z,80.54
2022-11-05T14:42:06.593Z,80.26
2022-11-05T14:45:31.786Z,80.26
2022-11-05T14:48:43.769Z,79.91
2022-11-05T14:51:44.289Z,80.80
2022-11-05T14:54:49.866Z,80.35
2022-11-05T14:57:53.181Z,81.37
2022-11-05T15:00:50.739Z,80.99
2022-11-05T15:04:01.332Z,81.28
2022-11-05T15:07:45.185Z,82.04
2022-11-05T15:10:42.840Z,81.21
2022-11-05T15:13:53.596Z,81.03
2022-11-05T15:16:53.188Z,82.43
2022-11-05T15:19:51.149Z,83.64
2022-11-05T15:22:51.977Z,84.09
2022-11-05T15:26:06.604Z,83.72
2022-11-05T15:29:04.116Z,82.96
2022-11-05T15:32:01.907Z,82.94
2022-11-05T15:34:58.725Z,84.17
2022-11-05T15:38:01.786Z,83.90
2022-11-05T15:41:01.971Z,84.95
2022-11-05T15:43:59.994Z,84.56
2022-11-05T15:47:26.301Z,84.60
2022-11-05T15:50:23.532Z,83.95
2022-11-05T15:53:56.036Z,85.08
2022-11-05T15:56:55.979Z,86.23
2022-11-05T15:59:53.425Z,86.47
2022-11-05T16:02:56.758Z,84.89
2022-11-05T16:05:54.056Z,84.85
2022-11-05T16:08:51.598Z,85.88
2022-11-05T16:11:48.481Z,86.04
2022-11-05T16:14:57.357Z,85.52
2022-11-05T16:18:01.140Z,86.21
2022-11-05T16:21:11.459Z,84.90
2022-11-05T16:24:28.150Z,84.05
2022-11-05T16:27:26.665Z,82.70
2022-11-05T16:30:23.943Z,82.01
2022-11-05T16:33:20.658Z,82.49
2022-11-05T16:36:17.488Z,83.45
2022-11-05T16:39:14.880Z,82.49
2022-11-05T16:42:24.527Z,81.85
2022-11-05T16:45:24.178Z,82.03
2022-11-05T16:48:21.741Z,82.66
2022-11-05T16:51:23.394Z,83.29
2022-11-05T16:54:23.707Z,82.15
2022-11-05T16:57:27.547Z,82.06
2022-11-05T17:00:25.077Z,81.37
2022-11-05T17:03:21.576Z,82.04
2022-11-05T17:06:19.821Z,81.77
2022-11-05T17:09:16.889Z,84.71
2022-11-05T17:12:13.715Z,84.36
2022-11-05T17:15:33.643Z,83.91
2022-11-05T17:18:30.553Z,83.77
2022-11-05T17:21:28.886Z,83.47
2022-11-05T17:24:25.650Z,82.40
2022-11-05T17:27:22.886Z,82.91
2022-11-05T17:30:19.617Z,83.15
2022-11-05T17:33:18.929Z,83.42
2022-11-05T17:36:16.311Z,84.27
2022-11-05T17:39:13.876Z,84.65
2022-11-05T17:42:10.846Z,84.72
2022-11-05T17:45:08.475Z,85.21
2022-11-05T17:48:05.794Z,84.04
2022-11-05T17:51:03.022Z,83.19
2022-11-05T17:53:59.688Z,84.03
2022-11-05T17:56:56.990Z,85.10
2022-11-05T17:59:53.877Z,85.01
2022-11-05T18:02:52.288Z,86.15
2022-11-05T18:05:49.909Z,85.45
2022-11-05T18:08:47.025Z,86.93
2022-11-05T18:11:43.919Z,86.13
2022-11-05T18:14:40.706Z,85.91
2022-11-05T18:17:40.194Z,86.08
2022-11-05T18:20:38.323Z,86.25
2022-11-05T18:23:35.839Z,86.84
2022-11-05T18:26:32.769Z,86.21
2022-11-05T18:29:29.818Z,85.52
2022-11-05T18:32:26.785Z,87.04
2022-11-05T18:35:23.997Z,86.95
2022-11-05T18:38:21.101Z,87.36
2022-11-05T18:41:18.001Z,86.48
2022-11-05T18:44:16.900Z,85.30
2022-11-05T18:47:13.823Z,86.72
2022-11-05T18:50:11.076Z,86.40
2022-11-05T18:53:08.269Z,85.83
2022-11-05T18:56:09.493Z,86.05
2022-11-05T18:59:35.112Z,85.83
2022-11-05T19:02:24.033Z,85.22
2022-11-05T19:05:29.075Z,84.30
2022-11-05T19:08:27.126Z,84.35
2022-11-05T19:11:24.977Z,84.43
2022-11-05T19:14:21.838Z,84.48
2022-11-05T19:17:19.298Z,85.70
2022-11-05T19:20:16.960Z,85.69
2022-11-05T19:23:13.606Z,86.00
2022-11-05T19:26:18.360Z,85.01
2022-11-05T19:29:15.595Z,84.94
2022-11-05T19:32:13.196Z,86.07
2022-11-05T19:35:09.864Z,86.20
2022-11-05T19:38:06.695Z,86.18
2022-11-05T19:41:09.051Z,87.59
2022-11-05T19:44:05.721Z,87.63
2022-11-05T19:47:02.977Z,86.98
2022-11-05T19:49:59.961Z,87.15
2022-11-05T19:52:56.847Z,86.57
2022-11-05T19:55:54.114Z,87.90
2022-11-05T19:58:50.850Z,87.69
2022-11-05T20:01:48.006Z,88.57
2022-11-05T20:04:44.925Z,86.98
2022-11-05T20:07:43.612Z,87.48
2022-11-05T20:10:45.912Z,86.88
2022-11-05T20:13:42.815Z,88.02
2022-11-05T20:16:41.362Z,88.14
2022-11-05T20:19:39.109Z,88.29
2022-11-05T20:22:36.373Z,88.90
2022-11-05T20:25:33.878Z,89.71
2022-11-05T20:28:33.472Z,90.67
2022-11-05T20:31:30.709Z,90.72
2022-11-05T20:34:29.601Z,90.63
2022-11-05T20:37:27.713Z,89.99
2022-11-05T20:40:25.195Z,89.49
2022-11-05T20:43:26.043Z,87.80
2022-11-05T20:46:25.879Z,88.33
2022-11-05T20:49:25.644Z,87.98
2022-11-05T20:52:23.373Z,86.83
2022-11-05T20:55:21.230Z,88.84
2022-11-05T20:58:17.788Z,87.83
2022-11-05T21:01:16.519Z,87.24
2022-11-05T21:04:14.196Z,88.73
2022-11-05T21:07:11.322Z,88.07
2022-11-05T21:10:08.995Z,87.61
2022-11-05T21:13:05.930Z,89.18
2022-11-05T21:16:04.427Z,88.50
2022-11-05T21:19:01.892Z,90.21
2022-11-05T21:21:58.663Z,91.31
2022-11-05T21:24:58.712Z,91.20
2022-11-05T21:27:56.415Z,92.58
2022-11-05T21:30:53.884Z,93.27
2022-11-05T21:33:54.974Z,92.02
2022-11-05T21:36:53.383Z,93.48
2022-11-05T21:39:51.367Z,91.65
2022-11-05T21:42:49.071Z,91.95
2022-11-05T21:45:46.030Z,90.58
2022-11-05T21:48:43.028Z,91.54
2022-11-05T21:51:59.780Z,91.23
2022-11-05T21:55:15.419Z,91.27
2022-11-05T21:58:33.722Z,91.75
2022-11-05T22:01:31.939Z,92.64
2022-11-05T22:04:34.584Z,92.38
2022-11-05T22:07:34.200Z,91.03
2022-11-05T22:10:31.120Z,91.79
2022-11-05T22:13:28.327Z,92.44
2022-11-05T22:16:26.204Z,92.22
2022-11-05T22:19:23.211Z,91.54
2022-11-05T22:22:19.892Z,91.96
2022-11-05T22:25:16.798Z,92.68
2022-11-05T22:28:14.226Z,90.78
2022-11-05T22:31:15.613Z,89.87
2022-11-05T22:34:13.256Z,91.04
2022-11-05T22:37:11.997Z,91.28
2022-11-05T22:40:09.778Z,91.29
2022-11-05T22:43:06.805Z,90.77
2022-11-05T22:46:08.894Z,92.41
2022-11-05T22:49:07.217Z,92.62
2022-11-05T22:52:04.244Z,93.13
2022-11-05T22:55:03.918Z,91.57
2022-11-05T22:58:01.110Z,91.08
2022-11-05T23:00:58.095Z,91.27
2022-11-05T23:03:56.439Z,91.14
2022-11-05T23:07:12.391Z,92.33
2022-11-05T23:10:28.158Z,91.22
2022-11-05T23:13:24.782Z,93.72
2022-11-05T23:16:40.875Z,93.58
2022-11-05T23:19:56.831Z,93.18
2022-11-05T23:23:12.587Z,91.90
2022-11-05T23:26:29.031Z,92.87
2022-11-05T23:29:26.936Z,93.09
2022-11-05T23:32:24.034Z,92.62
2022-11-05T23:35:41.181Z,95.44
2022-11-05T23:38:38.389Z,97.38
2022-11-05T23:42:04.431Z,96.97
2022-11-05T23:45:20.756Z,100.00
2022-11-05T23:48:26.887Z,100.00
2022-11-05T23:51:24.777Z,100.00
2022-11-05T23:54:22.536Z,100.00
2022-11-05T23:57:20.314Z,100.00
